createdAt,value
2022-11-27T00:00:39.000Z,2.84
2022-11-27T00:01:39.000Z,2.84
2022-11-27T00:02:39.000Z,2.87
2022-11-27T00:03:39.000Z,2.86
2022-11-27T00:04:39.000Z,2.84
2022-11-27T00:05:38.000Z,2.87
2022-11-27T00:06:38.000Z,2.87
2022-11-27T00:07:38.000Z,2.90
2022-11-27T00:08:38.000Z,2.87
2022-11-27T00:09:38.000Z,2.86
2022-11-27T00:10:38.000Z,2.86
2022-11-27T00:11:38.000Z,2.86
2022-11-27T00:12:38.000Z,2.84
2022-11-27T00:13:38.000Z,2.81
2022-11-27T00:14:38.000Z,2.80
2022-11-27T00:15:38.000Z,2.80
2022-11-27T00:16:38.000Z,2.79
2022-11-27T00:17:38.000Z,2.74
2022-11-27T00:18:38.000Z,2.73
2022-11-27T00:19:38.000Z,2.68
2022-11-27T00:20:38.000Z,2.66
2022-11-27T00:21:38.000Z,2.66
2022-11-27T00:22:38.000Z,2.61
2022-11-27T00:23:38.000Z,2.59
2022-11-27T00:24:38.000Z,2.62
2022-11-27T00:25:38.000Z,2.59
2022-11-27T00:26:38.000Z,2.59
2022-11-27T00:27:38.000Z,2.61
2022-11-27T00:28:38.000Z,2.59
2022-11-27T00:29:38.000Z,2.55
2022-11-27T00:30:38.000Z,2.58
2022-11-27T00:31:38.000Z,2.56
2022-11-27T00:32:38.000Z,2.55
2022-11-27T00:33:38.000Z,2.56
2022-11-27T00:34:38.000Z,2.59
2022-11-27T00:35:38.000Z,2.53
2022-11-27T00:36:38.000Z,2.51
2022-11-27T00:37:38.000Z,2.51
2022-11-27T00:38:38.000Z,2.51
2022-11-27T00:39:38.000Z,2.53
2022-11-27T00:40:38.000Z,2.55
2022-11-27T00:41:38.000Z,2.55
2022-11-27T00:42:38.000Z,2.56
2022-11-27T00:43:38.000Z,2.55
2022-11-27T00:44:38.000Z,2.55
2022-11-27T00:45:38.000Z,2.56
2022-11-27T00:46:38.000Z,2.51
2022-11-27T00:47:38.000Z,2.53
2022-11-27T00:48:38.000Z,2.53
2022-11-27T00:49:38.000Z,2.51
2022-11-27T00:50:38.000Z,2.53
2022-11-27T00:51:38.000Z,2.53
2022-11-27T00:52:38.000Z,2.53
2022-11-27T00:53:38.000Z,2.55
2022-11-27T00:54:38.000Z,2.59
2022-11-27T00:55:38.000Z,2.61
2022-11-27T00:56:38.000Z,2.61
2022-11-27T00:57:38.000Z,2.59
2022-11-27T00:58:38.000Z,2.66
2022-11-27T00:59:38.000Z,2.62
2022-11-27T01:00:38.000Z,2.62
2022-11-27T01:01:38.000Z,2.61
2022-11-27T01:02:38.000Z,2.63
2022-11-27T01:03:38.000Z,2.62
2022-11-27T01:04:38.000Z,2.69
2022-11-27T01:05:38.000Z,2.63
2022-11-27T01:06:38.000Z,2.69
2022-11-27T01:07:38.000Z,2.65
2022-11-27T01:08:38.000Z,2.65
2022-11-27T01:09:38.000Z,2.68
2022-11-27T01:10:38.000Z,2.66
2022-11-27T01:11:38.000Z,2.68
2022-11-27T01:12:38.000Z,2.66
2022-11-27T01:13:38.000Z,2.62
2022-11-27T01:14:38.000Z,2.62
2022-11-27T01:15:38.000Z,2.61
2022-11-27T01:16:38.000Z,2.59
2022-11-27T01:17:38.000Z,2.61
2022-11-27T01:18:38.000Z,2.53
2022-11-27T01:19:38.000Z,2.56
2022-11-27T01:20:38.000Z,2.53
2022-11-27T01:21:37.000Z,2.51
2022-11-27T01:22:37.000Z,2.53
2022-11-27T01:23:37.000Z,2.51
2022-11-27T01:24:37.000Z,2.50
2022-11-27T01:25:37.000Z,2.48
2022-11-27T01:26:37.000Z,2.48
2022-11-27T01:27:37.000Z,2.50
2022-11-27T01:28:37.000Z,2.45
2022-11-27T01:29:37.000Z,2.47
2022-11-27T01:30:37.000Z,2.48
2022-11-27T01:31:37.000Z,2.44
2022-11-27T01:32:37.000Z,2.41
2022-11-27T01:33:37.000Z,2.44
2022-11-27T01:34:37.000Z,2.41
2022-11-27T01:35:37.000Z,2.43
2022-11-27T01:36:37.000Z,2.38
2022-11-27T01:37:37.000Z,2.41
2022-11-27T01:38:37.000Z,2.43
2022-11-27T01:39:37.000Z,2.41
2022-11-27T01:40:37.000Z,2.43
2022-11-27T01:41:37.000Z,2.44
2022-11-27T01:42:37.000Z,2.44
2022-11-27T01:43:37.000Z,2.45
2022-11-27T01:44:37.000Z,2.45
2022-11-27T01:45:37.000Z,2.40
2022-11-27T01:46:37.000Z,2.45
2022-11-27T01:47:37.000Z,2.41
2022-11-27T01:48:37.000Z,2.37
2022-11-27T01:49:37.000Z,2.37
2022-11-27T01:50:37.000Z,2.40
2022-11-27T01:51:37.000Z,2.37
2022-11-27T01:52:37.000Z,2.36
2022-11-27T01:53:37.000Z,2.33
2022-11-27T01:54:37.000Z,2.30
2022-11-27T01:55:37.000Z,2.32
2022-11-27T01:56:37.000Z,2.32
2022-11-27T01:57:37.000Z,2.32
2022-11-27T01:58:37.000Z,2.30
2022-11-27T01:59:37.000Z,2.27
2022-11-27T02:00:37.000Z,2.26
2022-11-27T02:01:37.000Z,2.26
2022-11-27T02:02:37.000Z,2.26
2022-11-27T02:03:37.000Z,2.22
2022-11-27T02:04:37.000Z,2.27
2022-11-27T02:05:37.000Z,2.22
2022-11-27T02:06:37.000Z,2.23
2022-11-27T02:07:37.000Z,2.19
2022-11-27T02:08:37.000Z,2.23
2022-11-27T02:09:37.000Z,2.20
2022-11-27T02:10:37.000Z,2.15
2022-11-27T02:11:37.000Z,2.15
2022-11-27T02:12:37.000Z,2.15
2022-11-27T02:13:37.000Z,2.11
2022-11-27T02:14:37.000Z,2.09
2022-11-27T02:15:37.000Z,2.08
2022-11-27T02:16:37.000Z,2.05
2022-11-27T02:17:37.000Z,2.04
2022-11-27T02:18:37.000Z,2.07
2022-11-27T02:19:37.000Z,2.02
2022-11-27T02:20:37.000Z,2.05
2022-11-27T02:21:37.000Z,2.04
2022-11-27T02:22:37.000Z,2.04
2022-11-27T02:23:37.000Z,2.05
2022-11-27T02:24:37.000Z,2.04
2022-11-27T02:25:37.000Z,2.00
2022-11-27T02:26:37.000Z,2.00
2022-11-27T02:27:37.000Z,2.02
2022-11-27T02:28:37.000Z,2.01
2022-11-27T02:29:37.000Z,2.02
2022-11-27T02:30:37.000Z,1.95
2022-11-27T02:31:37.000Z,1.95
2022-11-27T02:32:37.000Z,2.02
2022-11-27T02:33:37.000Z,1.98
2022-11-27T02:34:37.000Z,1.95
2022-11-27T02:35:37.000Z,1.93
2022-11-27T02:36:37.000Z,2.01
2022-11-27T02:37:37.000Z,2.01
2022-11-27T02:38:36.000Z,2.02
2022-11-27T02:39:36.000Z,2.01
2022-11-27T02:40:36.000Z,2.00
2022-11-27T02:41:36.000Z,1.98
2022-11-27T02:42:36.000Z,1.95
2022-11-27T02:43:36.000Z,2.00
2022-11-27T02:44:36.000Z,1.98
2022-11-27T02:45:36.000Z,1.98
2022-11-27T02:46:36.000Z,1.93
2022-11-27T02:47:36.000Z,1.95
2022-11-27T02:48:36.000Z,1.93
2022-11-27T02:49:36.000Z,1.95
2022-11-27T02:50:36.000Z,1.92
2022-11-27T02:51:36.000Z,1.92
2022-11-27T02:52:36.000Z,1.93
2022-11-27T02:53:36.000Z,1.95
2022-11-27T02:54:36.000Z,1.90
2022-11-27T02:55:36.000Z,1.89
2022-11-27T02:56:36.000Z,1.88
2022-11-27T02:57:36.000Z,1.88
2022-11-27T02:58:36.000Z,1.85
2022-11-27T02:59:36.000Z,1.83
2022-11-27T03:00:36.000Z,1.83
2022-11-27T03:01:36.000Z,1.83
2022-11-27T03:02:36.000Z,1.77
2022-11-27T03:03:36.000Z,1.74
2022-11-27T03:04:36.000Z,1.77
2022-11-27T03:05:36.000Z,1.74
2022-11-27T03:06:36.000Z,1.74
2022-11-27T03:07:36.000Z,1.71
2022-11-27T03:08:36.000Z,1.68
2022-11-27T03:09:36.000Z,1.68
2022-11-27T03:10:36.000Z,1.65
2022-11-27T03:11:36.000Z,1.67
2022-11-27T03:12:36.000Z,1.64
2022-11-27T03:13:36.000Z,1.64
2022-11-27T03:14:36.000Z,1.64
2022-11-27T03:15:36.000Z,1.61
2022-11-27T03:16:36.000Z,1.60
2022-11-27T03:17:36.000Z,1.64
2022-11-27T03:18:36.000Z,1.63
2022-11-27T03:19:36.000Z,1.61
2022-11-27T03:20:36.000Z,1.63
2022-11-27T03:21:36.000Z,1.63
2022-11-27T03:22:36.000Z,1.60
2022-11-27T03:23:36.000Z,1.56
2022-11-27T03:24:36.000Z,1.63
2022-11-27T03:25:36.000Z,1.56
2022-11-27T03:26:36.000Z,1.63
2022-11-27T03:27:36.000Z,1.56
2022-11-27T03:28:36.000Z,1.61
2022-11-27T03:29:36.000Z,1.57
2022-11-27T03:30:36.000Z,1.53
2022-11-27T03:31:36.000Z,1.57
2022-11-27T03:32:36.000Z,1.57
2022-11-27T03:33:36.000Z,1.54
2022-11-27T03:34:36.000Z,1.54
2022-11-27T03:35:36.000Z,1.56
2022-11-27T03:36:36.000Z,1.53
2022-11-27T03:37:36.000Z,1.57
2022-11-27T03:38:36.000Z,1.53
2022-11-27T03:39:36.000Z,1.54
2022-11-27T03:40:36.000Z,1.52
2022-11-27T03:41:36.000Z,1.50
2022-11-27T03:42:36.000Z,1.50
2022-11-27T03:43:36.000Z,1.49
2022-11-27T03:44:36.000Z,1.46
2022-11-27T03:45:36.000Z,1.47
2022-11-27T03:46:36.000Z,1.50
2022-11-27T03:47:36.000Z,1.47
2022-11-27T03:48:36.000Z,1.47
2022-11-27T03:49:36.000Z,1.49
2022-11-27T03:50:36.000Z,1.46
2022-11-27T03:51:36.000Z,1.46
2022-11-27T03:52:36.000Z,1.47
2022-11-27T03:53:36.000Z,1.44
2022-11-27T03:54:36.000Z,1.43
2022-11-27T03:55:35.000Z,1.46
2022-11-27T03:56:35.000Z,1.44
2022-11-27T03:57:35.000Z,1.43
2022-11-27T03:58:35.000Z,1.46
2022-11-27T03:59:35.000Z,1.47
2022-11-27T04:00:35.000Z,1.43
2022-11-27T04:01:35.000Z,1.47
2022-11-27T04:02:35.000Z,1.46
2022-11-27T04:03:35.000Z,1.46
2022-11-27T04:04:35.000Z,1.44
2022-11-27T04:05:35.000Z,1.46
2022-11-27T04:06:35.000Z,1.44
2022-11-27T04:07:35.000Z,1.46
2022-11-27T04:08:35.000Z,1.43
2022-11-27T04:09:35.000Z,1.46
2022-11-27T04:10:35.000Z,1.46
2022-11-27T04:11:35.000Z,1.43
2022-11-27T04:12:35.000Z,1.44
2022-11-27T04:13:35.000Z,1.42
2022-11-27T04:14:35.000Z,1.44
2022-11-27T04:15:35.000Z,1.42
2022-11-27T04:16:35.000Z,1.43
2022-11-27T04:17:35.000Z,1.42
2022-11-27T04:18:35.000Z,1.43
2022-11-27T04:19:35.000Z,1.39
2022-11-27T04:20:35.000Z,1.39
2022-11-27T04:21:35.000Z,1.43
2022-11-27T04:22:35.000Z,1.43
2022-11-27T04:23:35.000Z,1.42
2022-11-27T04:24:35.000Z,1.43
2022-11-27T04:25:35.000Z,1.43
2022-11-27T04:26:35.000Z,1.42
2022-11-27T04:27:35.000Z,1.44
2022-11-27T04:28:35.000Z,1.43
2022-11-27T04:29:35.000Z,1.44
2022-11-27T04:30:35.000Z,1.44
2022-11-27T04:31:35.000Z,1.46
2022-11-27T04:32:35.000Z,1.44
2022-11-27T04:33:35.000Z,1.44
2022-11-27T04:34:35.000Z,1.46
2022-11-27T04:35:35.000Z,1.44
2022-11-27T04:36:35.000Z,1.44
2022-11-27T04:37:35.000Z,1.46
2022-11-27T04:38:35.000Z,1.43
2022-11-27T04:39:35.000Z,1.43
2022-11-27T04:40:35.000Z,1.43
2022-11-27T04:41:35.000Z,1.44
2022-11-27T04:42:35.000Z,1.39
2022-11-27T04:43:35.000Z,1.42
2022-11-27T04:44:35.000Z,1.36
2022-11-27T04:45:35.000Z,1.39
2022-11-27T04:46:35.000Z,1.44
2022-11-27T04:47:35.000Z,1.43
2022-11-27T04:48:35.000Z,1.43
2022-11-27T04:49:35.000Z,1.43
2022-11-27T04:50:35.000Z,1.44
2022-11-27T04:51:35.000Z,1.44
2022-11-27T04:52:35.000Z,1.46
2022-11-27T04:53:35.000Z,1.49
2022-11-27T04:54:35.000Z,1.50
2022-11-27T04:55:35.000Z,1.47
2022-11-27T04:56:35.000Z,1.47
2022-11-27T04:57:35.000Z,1.46
2022-11-27T04:58:35.000Z,1.49
2022-11-27T04:59:35.000Z,1.44
2022-11-27T05:00:35.000Z,1.52
2022-11-27T05:01:35.000Z,1.47
2022-11-27T05:02:35.000Z,1.50
2022-11-27T05:03:35.000Z,1.49
2022-11-27T05:04:35.000Z,1.50
2022-11-27T05:05:35.000Z,1.49
2022-11-27T05:06:35.000Z,1.49
2022-11-27T05:07:35.000Z,1.50
2022-11-27T05:08:35.000Z,1.47
2022-11-27T05:09:35.000Z,1.50
2022-11-27T05:10:35.000Z,1.49
2022-11-27T05:11:35.000Z,1.49
2022-11-27T05:12:34.000Z,1.46
2022-11-27T05:13:34.000Z,1.49
2022-11-27T05:14:34.000Z,1.47
2022-11-27T05:15:34.000Z,1.47
2022-11-27T05:16:34.000Z,1.46
2022-11-27T05:17:34.000Z,1.47
2022-11-27T05:18:34.000Z,1.50
2022-11-27T05:19:34.000Z,1.49
2022-11-27T05:20:34.000Z,1.47
2022-11-27T05:21:34.000Z,1.52
2022-11-27T05:22:34.000Z,1.49
2022-11-27T05:23:34.000Z,1.47
2022-11-27T05:24:34.000Z,1.47
2022-11-27T05:25:34.000Z,1.50
2022-11-27T05:26:34.000Z,1.44
2022-11-27T05:27:34.000Z,1.47
2022-11-27T05:28:34.000Z,1.43
2022-11-27T05:29:34.000Z,1.44
2022-11-27T05:30:34.000Z,1.47
2022-11-27T05:31:34.000Z,1.46
2022-11-27T05:32:34.000Z,1.42
2022-11-27T05:33:34.000Z,1.42
2022-11-27T05:34:34.000Z,1.42
2022-11-27T05:35:34.000Z,1.36
2022-11-27T05:36:34.000Z,1.38
2022-11-27T05:37:34.000Z,1.38
2022-11-27T05:38:34.000Z,1.42
2022-11-27T05:39:34.000Z,1.44
2022-11-27T05:40:34.000Z,1.42
2022-11-27T05:41:34.000Z,1.43
2022-11-27T05:42:34.000Z,1.38
2022-11-27T05:43:34.000Z,1.42
2022-11-27T05:44:34.000Z,1.38
2022-11-27T05:45:34.000Z,1.38
2022-11-27T05:46:34.000Z,1.36
2022-11-27T05:47:34.000Z,1.34
2022-11-27T05:48:34.000Z,1.36
2022-11-27T05:49:34.000Z,1.36
2022-11-27T05:50:34.000Z,1.34
2022-11-27T05:51:34.000Z,1.35
2022-11-27T05:52:34.000Z,1.35
2022-11-27T05:53:34.000Z,1.39
2022-11-27T05:54:34.000Z,1.35
2022-11-27T05:55:34.000Z,1.34
2022-11-27T05:56:34.000Z,1.32
2022-11-27T05:57:34.000Z,1.32
2022-11-27T05:58:34.000Z,1.32
2022-11-27T05:59:34.000Z,1.34
2022-11-27T06:00:34.000Z,1.35
2022-11-27T06:01:34.000Z,1.35
2022-11-27T06:02:34.000Z,1.35
2022-11-27T06:03:34.000Z,1.38
2022-11-27T06:04:34.000Z,1.42
2022-11-27T06:05:34.000Z,1.43
2022-11-27T06:06:34.000Z,1.44
2022-11-27T06:07:34.000Z,1.42
2022-11-27T06:08:34.000Z,1.43
2022-11-27T06:09:34.000Z,1.42
2022-11-27T06:10:34.000Z,1.42
2022-11-27T06:11:34.000Z,1.39
2022-11-27T06:12:34.000Z,1.42
2022-11-27T06:13:34.000Z,1.36
2022-11-27T06:14:34.000Z,1.44
2022-11-27T06:15:34.000Z,1.39
2022-11-27T06:16:34.000Z,1.39
2022-11-27T06:17:34.000Z,1.36
2022-11-27T06:18:34.000Z,1.39
2022-11-27T06:19:34.000Z,1.43
2022-11-27T06:20:34.000Z,1.43
2022-11-27T06:21:34.000Z,1.44
2022-11-27T06:22:34.000Z,1.39
2022-11-27T06:23:34.000Z,1.47
2022-11-27T06:24:34.000Z,1.43
2022-11-27T06:25:34.000Z,1.44
2022-11-27T06:26:34.000Z,1.43
2022-11-27T06:27:34.000Z,1.44
2022-11-27T06:28:34.000Z,1.39
2022-11-27T06:29:33.000Z,1.42
2022-11-27T06:30:33.000Z,1.43
2022-11-27T06:31:33.000Z,1.42
2022-11-27T06:32:33.000Z,1.36
2022-11-27T06:33:33.000Z,1.38
2022-11-27T06:34:33.000Z,1.38
2022-11-27T06:35:33.000Z,1.42
2022-11-27T06:36:33.000Z,1.42
2022-11-27T06:37:33.000Z,1.42
2022-11-27T06:38:33.000Z,1.43
2022-11-27T06:39:33.000Z,1.39
2022-11-27T06:40:33.000Z,1.42
2022-11-27T06:41:33.000Z,1.42
2022-11-27T06:42:33.000Z,1.36
2022-11-27T06:43:33.000Z,1.42
2022-11-27T06:44:33.000Z,1.42
2022-11-27T06:45:33.000Z,1.39
2022-11-27T06:46:33.000Z,1.39
2022-11-27T06:47:33.000Z,1.46
2022-11-27T06:48:33.000Z,1.44
2022-11-27T06:49:33.000Z,1.47
2022-11-27T06:50:33.000Z,1.47
2022-11-27T06:51:33.000Z,1.50
2022-11-27T06:52:33.000Z,1.44
2022-11-27T06:53:33.000Z,1.49
2022-11-27T06:54:33.000Z,1.47
2022-11-27T06:55:33.000Z,1.52
2022-11-27T06:56:33.000Z,1.49
2022-11-27T06:57:33.000Z,1.53
2022-11-27T06:58:33.000Z,1.53
2022-11-27T06:59:33.000Z,1.52
2022-11-27T07:00:33.000Z,1.53
2022-11-27T07:01:33.000Z,1.52
2022-11-27T07:02:33.000Z,1.54
2022-11-27T07:03:33.000Z,1.53
2022-11-27T07:04:33.000Z,1.49
2022-11-27T07:05:33.000Z,1.53
2022-11-27T07:06:33.000Z,1.56
2022-11-27T07:07:33.000Z,1.53
2022-11-27T07:08:33.000Z,1.57
2022-11-27T07:09:33.000Z,1.54
2022-11-27T07:10:33.000Z,1.60
2022-11-27T07:11:33.000Z,1.61
2022-11-27T07:12:33.000Z,1.61
2022-11-27T07:13:33.000Z,1.60
2022-11-27T07:14:33.000Z,1.60
2022-11-27T07:15:33.000Z,1.63
2022-11-27T07:16:33.000Z,1.64
2022-11-27T07:17:33.000Z,1.64
2022-11-27T07:18:33.000Z,1.64
2022-11-27T07:19:33.000Z,1.68
2022-11-27T07:20:33.000Z,1.67
2022-11-27T07:21:33.000Z,1.70
2022-11-27T07:22:33.000Z,1.67
2022-11-27T07:23:33.000Z,1.70
2022-11-27T07:24:33.000Z,1.72
2022-11-27T07:25:33.000Z,1.75
2022-11-27T07:26:33.000Z,1.77
2022-11-27T07:27:33.000Z,1.81
2022-11-27T07:28:33.000Z,1.83
2022-11-27T07:29:33.000Z,1.82
2022-11-27T07:30:33.000Z,1.83
2022-11-27T07:31:33.000Z,1.89
2022-11-27T07:32:33.000Z,1.88
2022-11-27T07:33:33.000Z,1.89
2022-11-27T07:34:33.000Z,1.90
2022-11-27T07:35:33.000Z,1.90
2022-11-27T07:36:33.000Z,1.93
2022-11-27T07:37:33.000Z,1.93
2022-11-27T07:38:33.000Z,1.98
2022-11-27T07:39:33.000Z,2.00
2022-11-27T07:40:33.000Z,2.01
2022-11-27T07:41:33.000Z,2.00
2022-11-27T07:42:33.000Z,2.04
2022-11-27T07:43:33.000Z,2.05
2022-11-27T07:44:33.000Z,2.07
2022-11-27T07:45:32.000Z,2.09
2022-11-27T07:46:32.000Z,2.09
2022-11-27T07:47:32.000Z,2.09
2022-11-27T07:48:32.000Z,2.15
2022-11-27T07:49:32.000Z,2.14
2022-11-27T07:50:32.000Z,2.14
2022-11-27T07:51:32.000Z,2.18
2022-11-27T07:52:32.000Z,2.15
2022-11-27T07:53:32.000Z,2.20
2022-11-27T07:54:32.000Z,2.22
2022-11-27T07:55:32.000Z,2.25
2022-11-27T07:56:32.000Z,2.26
2022-11-27T07:57:32.000Z,2.25
2022-11-27T07:58:32.000Z,2.30
2022-11-27T07:59:32.000Z,2.29
2022-11-27T08:00:32.000Z,2.32
2022-11-27T08:01:32.000Z,2.33
2022-11-27T08:02:32.000Z,2.38
2022-11-27T08:03:32.000Z,2.40
2022-11-27T08:04:32.000Z,2.40
2022-11-27T08:05:32.000Z,2.41
2022-11-27T08:06:32.000Z,2.43
2022-11-27T08:07:32.000Z,2.47
2022-11-27T08:08:32.000Z,2.48
2022-11-27T08:09:32.000Z,2.50
2022-11-27T08:10:32.000Z,2.55
2022-11-27T08:11:32.000Z,2.53
2022-11-27T08:12:32.000Z,2.53
2022-11-27T08:13:32.000Z,2.58
2022-11-27T08:14:32.000Z,2.61
2022-11-27T08:15:32.000Z,2.59
2022-11-27T08:16:32.000Z,2.62
2022-11-27T08:17:32.000Z,2.63
2022-11-27T08:18:32.000Z,2.66
2022-11-27T08:19:32.000Z,2.69
2022-11-27T08:20:32.000Z,2.73
2022-11-27T08:21:32.000Z,2.76
2022-11-27T08:22:32.000Z,2.74
2022-11-27T08:23:32.000Z,2.80
2022-11-27T08:24:32.000Z,2.83
2022-11-27T08:25:32.000Z,2.81
2022-11-27T08:26:32.000Z,2.86
2022-11-27T08:27:32.000Z,2.90
2022-11-27T08:28:32.000Z,2.92
2022-11-27T08:29:32.000Z,2.86
2022-11-27T08:30:32.000Z,2.94
2022-11-27T08:31:32.000Z,2.98
2022-11-27T08:32:32.000Z,2.98
2022-11-27T08:33:32.000Z,2.99
2022-11-27T08:34:32.000Z,3.01
2022-11-27T08:35:32.000Z,3.04
2022-11-27T08:36:32.000Z,3.04
2022-11-27T08:37:32.000Z,3.10
2022-11-27T08:38:32.000Z,3.13
2022-11-27T08:39:32.000Z,3.13
2022-11-27T08:40:32.000Z,3.15
2022-11-27T08:41:32.000Z,3.15
2022-11-27T08:42:32.000Z,3.17
2022-11-27T08:43:32.000Z,3.17
2022-11-27T08:44:32.000Z,3.23
2022-11-27T08:45:32.000Z,3.25
2022-11-27T08:46:32.000Z,3.28
2022-11-27T08:47:32.000Z,3.31
2022-11-27T08:48:32.000Z,3.31
2022-11-27T08:49:32.000Z,3.34
2022-11-27T08:50:32.000Z,3.35
2022-11-27T08:51:32.000Z,3.37
2022-11-27T08:52:32.000Z,3.46
2022-11-27T08:53:32.000Z,3.44
2022-11-27T08:54:32.000Z,3.49
2022-11-27T08:55:32.000Z,3.53
2022-11-27T08:56:32.000Z,3.53
2022-11-27T08:57:32.000Z,3.56
2022-11-27T08:58:32.000Z,3.56
2022-11-27T08:59:32.000Z,3.62
2022-11-27T09:00:32.000Z,3.68
2022-11-27T09:01:32.000Z,3.68
2022-11-27T09:02:31.000Z,3.70
2022-11-27T09:03:31.000Z,3.74
2022-11-27T09:04:31.000Z,3.81
2022-11-27T09:05:31.000Z,3.84
2022-11-27T09:06:31.000Z,3.89
2022-11-27T09:07:31.000Z,3.90
2022-11-27T09:08:31.000Z,3.92
2022-11-27T09:09:31.000Z,3.93
2022-11-27T09:10:31.000Z,3.98
2022-11-27T09:11:31.000Z,4.00
2022-11-27T09:12:31.000Z,4.04
2022-11-27T09:13:31.000Z,4.04
2022-11-27T09:14:31.000Z,4.07
2022-11-27T09:15:31.000Z,4.06
2022-11-27T09:16:31.000Z,4.06
2022-11-27T09:17:31.000Z,4.10
2022-11-27T09:18:31.000Z,4.11
2022-11-27T09:19:31.000Z,4.14
2022-11-27T09:20:31.000Z,4.18
2022-11-27T09:21:31.000Z,4.24
2022-11-27T09:22:31.000Z,4.28
2022-11-27T09:23:31.000Z,4.28
2022-11-27T09:24:31.000Z,4.32
2022-11-27T09:25:31.000Z,4.35
2022-11-27T09:26:31.000Z,4.39
2022-11-27T09:27:31.000Z,4.47
2022-11-27T09:28:31.000Z,4.51
2022-11-27T09:29:31.000Z,4.59
2022-11-27T09:30:31.000Z,4.64
2022-11-27T09:31:31.000Z,4.65
2022-11-27T09:32:31.000Z,4.71
2022-11-27T09:33:31.000Z,4.77
2022-11-27T09:34:31.000Z,4.84
2022-11-27T09:35:31.000Z,4.88
2022-11-27T09:36:31.000Z,4.94
2022-11-27T09:37:31.000Z,5.04
2022-11-27T09:38:31.000Z,5.08
2022-11-27T09:39:31.000Z,5.06
2022-11-27T09:40:31.000Z,5.17
2022-11-27T09:41:31.000Z,5.22
2022-11-27T09:42:31.000Z,5.23
2022-11-27T09:43:31.000Z,5.27
2022-11-27T09:44:31.000Z,5.29
2022-11-27T09:45:31.000Z,5.27
2022-11-27T09:46:31.000Z,5.29
2022-11-27T09:47:31.000Z,5.26
2022-11-27T09:48:31.000Z,5.27
2022-11-27T09:49:31.000Z,5.30
2022-11-27T09:50:31.000Z,5.29
2022-11-27T09:51:31.000Z,5.35
2022-11-27T09:52:31.000Z,5.33
2022-11-27T09:53:31.000Z,5.44
2022-11-27T09:54:31.000Z,5.42
2022-11-27T09:55:31.000Z,5.47
2022-11-27T09:56:31.000Z,5.51
2022-11-27T09:57:31.000Z,5.52
2022-11-27T09:58:31.000Z,5.52
2022-11-27T09:59:31.000Z,5.55
2022-11-27T10:00:31.000Z,5.62
2022-11-27T10:01:31.000Z,5.66
2022-11-27T10:02:31.000Z,5.67
2022-11-27T10:03:31.000Z,5.69
2022-11-27T10:04:31.000Z,5.69
2022-11-27T10:05:31.000Z,5.77
2022-11-27T10:06:31.000Z,5.75
2022-11-27T10:07:31.000Z,5.81
2022-11-27T10:08:31.000Z,5.83
2022-11-27T10:09:31.000Z,5.85
2022-11-27T10:10:31.000Z,5.85
2022-11-27T10:11:31.000Z,5.88
2022-11-27T10:12:31.000Z,5.95
2022-11-27T10:13:31.000Z,5.88
2022-11-27T10:14:31.000Z,5.96
2022-11-27T10:15:31.000Z,5.96
2022-11-27T10:16:31.000Z,5.99
2022-11-27T10:17:31.000Z,6.02
2022-11-27T10:18:30.000Z,6.02
2022-11-27T10:19:30.000Z,6.05
2022-11-27T10:20:30.000Z,6.10
2022-11-27T10:21:30.000Z,6.14
2022-11-27T10:22:30.000Z,6.17
2022-11-27T10:23:30.000Z,6.21
2022-11-27T10:24:30.000Z,6.27
2022-11-27T10:25:30.000Z,6.36
2022-11-27T10:26:30.000Z,6.38
2022-11-27T10:27:30.000Z,6.42
2022-11-27T10:28:30.000Z,6.48
2022-11-27T10:29:30.000Z,6.53
2022-11-27T10:30:30.000Z,6.57
2022-11-27T10:31:30.000Z,6.58
2022-11-27T10:32:30.000Z,6.57
2022-11-27T10:33:30.000Z,6.63
2022-11-27T10:34:30.000Z,6.65
2022-11-27T10:35:30.000Z,6.69
2022-11-27T10:36:30.000Z,6.78
2022-11-27T10:37:30.000Z,6.83
2022-11-27T10:38:30.000Z,6.93
2022-11-27T10:39:30.000Z,7.01
2022-11-27T10:40:30.000Z,7.11
2022-11-27T10:41:30.000Z,7.15
2022-11-27T10:42:30.000Z,7.27
2022-11-27T10:43:30.000Z,7.34
2022-11-27T10:44:30.000Z,7.47
2022-11-27T10:45:30.000Z,7.50
2022-11-27T10:46:30.000Z,7.63
2022-11-27T10:47:30.000Z,7.67
2022-11-27T10:48:30.000Z,7.71
2022-11-27T10:49:30.000Z,7.79
2022-11-27T10:50:30.000Z,7.92
2022-11-27T10:51:30.000Z,8.06
2022-11-27T10:52:30.000Z,8.13
2022-11-27T10:53:30.000Z,8.31
2022-11-27T10:54:30.000Z,8.43
2022-11-27T10:55:30.000Z,8.50
2022-11-27T10:56:30.000Z,8.64
2022-11-27T10:57:30.000Z,8.68
2022-11-27T10:58:30.000Z,8.76
2022-11-27T10:59:30.000Z,8.91
2022-11-27T11:00:30.000Z,9.03
2022-11-27T11:01:30.000Z,9.01
2022-11-27T11:02:30.000Z,9.10
2022-11-27T11:03:30.000Z,9.03
2022-11-27T11:04:30.000Z,8.85
2022-11-27T11:05:30.000Z,8.86
2022-11-27T11:06:30.000Z,8.83
2022-11-27T11:07:30.000Z,8.86
2022-11-27T11:08:30.000Z,8.93
2022-11-27T11:09:30.000Z,8.98
2022-11-27T11:10:30.000Z,9.04
2022-11-27T11:11:30.000Z,9.13
2022-11-27T11:12:30.000Z,9.12
2022-11-27T11:13:30.000Z,8.93
2022-11-27T11:14:30.000Z,8.86
2022-11-27T11:15:30.000Z,8.80
2022-11-27T11:16:30.000Z,8.67
2022-11-27T11:17:30.000Z,8.55
2022-11-27T11:18:30.000Z,8.57
2022-11-27T11:19:30.000Z,8.73
2022-11-27T11:20:30.000Z,8.86
2022-11-27T11:21:30.000Z,9.03
2022-11-27T11:22:30.000Z,9.13
2022-11-27T11:23:30.000Z,9.17
2022-11-27T11:24:30.000Z,9.23
2022-11-27T11:25:30.000Z,9.26
2022-11-27T11:26:30.000Z,9.44
2022-11-27T11:27:30.000Z,9.59
2022-11-27T11:28:30.000Z,9.78
2022-11-27T11:29:30.000Z,9.95
2022-11-27T11:30:30.000Z,10.13
2022-11-27T11:31:30.000Z,10.20
2022-11-27T11:32:29.000Z,10.31
2022-11-27T11:33:29.000Z,10.35
2022-11-27T11:34:29.000Z,10.42
2022-11-27T11:35:29.000Z,10.51
2022-11-27T11:36:29.000Z,10.52
2022-11-27T11:37:29.000Z,10.58
2022-11-27T11:38:29.000Z,10.55
2022-11-27T11:39:29.000Z,10.52
2022-11-27T11:40:29.000Z,10.51
2022-11-27T11:41:29.000Z,10.54
2022-11-27T11:42:29.000Z,10.57
2022-11-27T11:43:29.000Z,10.57
2022-11-27T11:44:29.000Z,10.62
2022-11-27T11:45:29.000Z,10.55
2022-11-27T11:46:29.000Z,10.58
2022-11-27T11:47:29.000Z,10.63
2022-11-27T11:48:29.000Z,10.60
2022-11-27T11:49:29.000Z,10.63
2022-11-27T11:50:29.000Z,10.60
2022-11-27T11:51:29.000Z,10.46
2022-11-27T11:52:29.000Z,10.16
2022-11-27T11:53:29.000Z,9.89
2022-11-27T11:54:29.000Z,9.75
2022-11-27T11:55:29.000Z,9.60
2022-11-27T11:56:29.000Z,9.58
2022-11-27T11:57:29.000Z,9.65
2022-11-27T11:58:29.000Z,9.73
2022-11-27T11:59:29.000Z,9.86
2022-11-27T12:00:29.000Z,9.98
2022-11-27T12:01:29.000Z,10.02
2022-11-27T12:02:29.000Z,9.92
2022-11-27T12:03:29.000Z,9.95
2022-11-27T12:04:29.000Z,9.93
2022-11-27T12:05:29.000Z,9.98
2022-11-27T12:06:29.000Z,10.10
2022-11-27T12:07:29.000Z,10.14
2022-11-27T12:08:29.000Z,10.25
2022-11-27T12:09:29.000Z,10.28
2022-11-27T12:10:29.000Z,10.38
2022-11-27T12:11:29.000Z,10.46
2022-11-27T12:12:29.000Z,10.55
2022-11-27T12:13:29.000Z,10.69
2022-11-27T12:14:29.000Z,10.81
2022-11-27T12:15:29.000Z,10.75
2022-11-27T12:16:29.000Z,10.80
2022-11-27T12:17:29.000Z,10.78
2022-11-27T12:18:29.000Z,10.80
2022-11-27T12:19:29.000Z,10.94
2022-11-27T12:20:29.000Z,11.01
2022-11-27T12:21:29.000Z,11.06
2022-11-27T12:22:29.000Z,11.19
2022-11-27T12:23:29.000Z,11.28
2022-11-27T12:24:29.000Z,11.33
2022-11-27T12:25:29.000Z,11.27
2022-11-27T12:26:29.000Z,11.17
2022-11-27T12:27:29.000Z,11.08
2022-11-27T12:28:29.000Z,10.99
2022-11-27T12:29:29.000Z,11.03
2022-11-27T12:30:29.000Z,10.88
2022-11-27T12:31:29.000Z,10.80
2022-11-27T12:32:29.000Z,10.72
2022-11-27T12:33:29.000Z,10.69
2022-11-27T12:34:29.000Z,10.62
2022-11-27T12:35:29.000Z,10.60
2022-11-27T12:36:29.000Z,10.58
2022-11-27T12:37:29.000Z,10.54
2022-11-27T12:38:29.000Z,10.51
2022-11-27T12:39:29.000Z,10.35
2022-11-27T12:40:29.000Z,10.25
2022-11-27T12:41:29.000Z,10.14
2022-11-27T12:48:46.000Z,9.27
2022-11-27T12:48:46.000Z,9.16
2022-11-27T12:49:46.000Z,8.97
2022-11-27T12:50:46.000Z,8.89
2022-11-27T12:51:46.000Z,8.80
2022-11-27T12:52:46.000Z,8.75
2022-11-27T12:53:46.000Z,8.61
2022-11-27T12:54:46.000Z,8.50
2022-11-27T12:55:46.000Z,8.46
2022-11-27T12:56:46.000Z,8.45
2022-11-27T12:57:45.000Z,8.39
2022-11-27T12:58:45.000Z,8.36
2022-11-27T12:59:45.000Z,8.36
2022-11-27T13:00:45.000Z,8.32
2022-11-27T13:01:45.000Z,8.32
2022-11-27T13:02:45.000Z,8.29
2022-11-27T13:03:45.000Z,8.28
2022-11-27T13:04:45.000Z,8.27
2022-11-27T13:05:45.000Z,8.29
2022-11-27T13:06:45.000Z,8.29
2022-11-27T13:07:45.000Z,8.28
2022-11-27T13:08:45.000Z,8.22
2022-11-27T13:09:45.000Z,8.22
2022-11-27T13:10:45.000Z,8.20
2022-11-27T13:11:45.000Z,8.21
2022-11-27T13:12:45.000Z,8.18
2022-11-27T13:13:45.000Z,8.22
2022-11-27T13:14:45.000Z,8.21
2022-11-27T13:15:45.000Z,8.21
2022-11-27T13:16:45.000Z,8.20
2022-11-27T13:17:45.000Z,8.18
2022-11-27T13:18:45.000Z,8.18
2022-11-27T13:19:45.000Z,8.18
2022-11-27T13:20:45.000Z,8.18
2022-11-27T13:21:45.000Z,8.21